Time;durP1;ratioP1;P1;durP2;ratioP2;P2;SDS_P1;SDS_P2;PMS_P1;PMS_P2;Temp;Humidity;BMP_temperature;BMP_pressure;BME280_temperature;BME280_humidity;BME280_pressure;Samples;Min_cycle;Max_cycle;Signal;HPM_P1;HPM_P2
2023/09/01 00:00:30;;;;;;;;;;;13.60;90.30;;;;;;5083140;28;19917;-89
2023/09/01 00:02:55;;;;;;;;;;;13.70;90.10;;;;;;5059489;28;19916;-88
2023/09/01 00:05:21;;;;;;;;;;;13.60;90.10;;;;;;5064233;28;19916;-89
2023/09/01 00:07:46;;;;;;;;;;;13.70;89.90;;;;;;5079039;28;20309;-88
2023/09/01 00:10:12;;;;;;;;;;;13.70;89.80;;;;;;5064157;28;20008;-89
2023/09/01 00:12:37;;;;;;;;;;;13.60;89.70;;;;;;5065093;28;20320;-89
2023/09/01 00:15:03;;;;;;;;;;;13.60;89.80;;;;;;5063165;28;19912;-89
2023/09/01 00:17:31;;;;;;;;;;;13.70;90.10;;;;;;5053848;28;20431;-89
2023/09/01 00:19:56;;;;;;;;;;;13.60;90.40;;;;;;5063890;28;20325;-89
2023/09/01 00:22:22;;;;;;;;;;;13.60;90.60;;;;;;5056696;28;19912;-89
2023/09/01 00:24:47;;;;;;;;;;;13.60;90.30;;;;;;5078523;28;19923;-88
2023/09/01 00:27:13;;;;;;;;;;;13.60;90.20;;;;;;5058316;28;19913;-89
2023/09/01 00:29:41;;;;;;;;;;;13.60;90.70;;;;;;5061467;28;19912;-89
2023/09/01 00:32:07;;;;;;;;;;;13.50;90.60;;;;;;5084038;28;19916;-88
2023/09/01 00:34:33;;;;;;;;;;;13.50;90.50;;;;;;5052519;28;19912;-89
2023/09/01 00:36:58;;;;;;;;;;;13.50;90.60;;;;;;5080891;28;19917;-88
2023/09/01 00:39:24;;;;;;;;;;;13.40;90.60;;;;;;5055170;28;19912;-89
2023/09/01 00:41:49;;;;;;;;;;;13.40;90.60;;;;;;5071583;28;19999;-89
2023/09/01 00:44:15;;;;;;;;;;;13.50;90.50;;;;;;5080303;28;19920;-89
2023/09/01 00:46:43;;;;;;;;;;;13.60;90.40;;;;;;5074941;28;20597;-89
2023/09/01 00:49:09;;;;;;;;;;;13.60;90.30;;;;;;5066654;28;19920;-89
2023/09/01 00:51:38;;;;;;;;;;;13.60;90.10;;;;;;5087500;28;19912;-88
2023/09/01 00:54:04;;;;;;;;;;;13.40;90.30;;;;;;5057771;28;19947;-89
2023/09/01 00:56:30;;;;;;;;;;;13.40;90.60;;;;;;5058293;28;19970;-89
2023/09/01 00:58:56;;;;;;;;;;;13.40;90.70;;;;;;5086862;28;19962;-89
2023/09/01 01:01:22;;;;;;;;;;;13.40;90.80;;;;;;5063389;28;19916;-89
2023/09/01 01:03:49;;;;;;;;;;;13.50;90.70;;;;;;5073143;28;20007;-89
2023/09/01 01:06:37;;;;;;;;;;;13.50;90.40;;;;;;5075888;28;20336;-89
2023/09/01 01:09:08;;;;;;;;;;;13.50;90.20;;;;;;5074431;28;19974;-88
2023/09/01 01:11:40;;;;;;;;;;;13.50;90.10;;;;;;5058468;28;19916;-88
2023/09/01 01:14:07;;;;;;;;;;;13.50;90.00;;;;;;5077475;28;19916;-89
2023/09/01 01:16:33;;;;;;;;;;;13.50;89.80;;;;;;5054284;28;19912;-89
2023/09/01 01:19:04;;;;;;;;;;;13.50;89.80;;;;;;5074848;28;20362;-89
2023/09/01 01:21:30;;;;;;;;;;;13.40;89.70;;;;;;5053811;28;20378;-89
2023/09/01 01:23:56;;;;;;;;;;;13.40;89.90;;;;;;5064639;28;19975;-89
2023/09/01 01:26:23;;;;;;;;;;;13.40;90.10;;;;;;5052367;28;19999;-89
2023/09/01 01:28:57;;;;;;;;;;;13.30;90.10;;;;;;5061878;28;19966;-89
2023/09/01 01:31:22;;;;;;;;;;;13.30;90.20;;;;;;5079375;28;19962;-89
2023/09/01 01:33:55;;;;;;;;;;;13.30;90.60;;;;;;5079471;28;20328;-88
2023/09/01 01:36:31;;;;;;;;;;;13.20;90.40;;;;;;5070067;28;20378;-90
2023/09/01 01:39:04;;;;;;;;;;;13.30;90.30;;;;;;5070694;28;19912;-89
2023/09/01 01:41:36;;;;;;;;;;;13.30;90.20;;;;;;5081814;28;19982;-89
2023/09/01 01:44:02;;;;;;;;;;;13.30;90.20;;;;;;5062912;28;19952;-88
2023/09/01 01:46:28;;;;;;;;;;;13.30;90.10;;;;;;5076542;28;20270;-90
2023/09/01 01:48:53;;;;;;;;;;;13.30;89.90;;;;;;5058320;28;20046;-89
2023/09/01 01:51:19;;;;;;;;;;;13.10;90.20;;;;;;5082128;28;20389;-88
2023/09/01 01:53:44;;;;;;;;;;;13.10;90.40;;;;;;5084175;28;19920;-88
2023/09/01 01:56:11;;;;;;;;;;;13.10;90.50;;;;;;5087651;28;20401;-89
2023/09/01 01:58:39;;;;;;;;;;;13.10;90.90;;;;;;5064768;28;19912;-89
2023/09/01 02:01:07;;;;;;;;;;;13.10;90.50;;;;;;5076910;28;19917;-88
2023/09/01 02:03:34;;;;;;;;;;;13.00;90.40;;;;;;5053819;28;19928;-88
2023/09/01 02:05:59;;;;;;;;;;;13.00;90.70;;;;;;5053189;28;19912;-88
2023/09/01 02:08:27;;;;;;;;;;;13.00;90.60;;;;;;5059772;28;19918;-88
2023/09/01 02:10:53;;;;;;;;;;;13.00;90.70;;;;;;5058486;28;19916;-89
2023/09/01 02:13:18;;;;;;;;;;;13.00;90.70;;;;;;5062646;28;19957;-89
2023/09/01 02:15:53;;;;;;;;;;;13.00;90.30;;;;;;5087624;28;20439;-88
2023/09/01 02:18:19;;;;;;;;;;;12.90;90.90;;;;;;5053357;28;19913;-88
2023/09/01 02:20:47;;;;;;;;;;;13.00;90.60;;;;;;5071016;28;19995;-89
2023/09/01 02:23:14;;;;;;;;;;;12.80;90.40;;;;;;5053820;28;19917;-89
2023/09/01 02:25:39;;;;;;;;;;;12.80;90.20;;;;;;5082664;28;19940;-88
2023/09/01 02:28:05;;;;;;;;;;;12.70;90.40;;;;;;5051211;28;19917;-88
2023/09/01 02:30:30;;;;;;;;;;;12.80;90.50;;;;;;5057419;28;19920;-89
2023/09/01 02:32:56;;;;;;;;;;;12.70;90.40;;;;;;5098231;22;21085;-86
2023/09/01 02:35:21;;;;;;;;;;;12.70;90.60;;;;;;5052180;28;19938;-84
2023/09/01 02:37:47;;;;;;;;;;;12.70;90.70;;;;;;5067500;28;19958;-85
2023/09/01 02:40:12;;;;;;;;;;;12.70;90.60;;;;;;5061607;28;19924;-85
2023/09/01 02:42:40;;;;;;;;;;;12.60;91.00;;;;;;5070026;28;20396;-84
2023/09/01 02:45:07;;;;;;;;;;;12.70;90.60;;;;;;5053640;28;19912;-84
2023/09/01 02:47:32;;;;;;;;;;;12.60;90.40;;;;;;5056189;28;19913;-84
2023/09/01 02:49:58;;;;;;;;;;;12.60;90.30;;;;;;5053800;28;19912;-83
2023/09/01 02:52:23;;;;;;;;;;;12.60;90.00;;;;;;5064102;28;19920;-83
2023/09/01 02:54:49;;;;;;;;;;;12.60;90.10;;;;;;5057578;28;19940;-84
2023/09/01 02:57:14;;;;;;;;;;;12.50;90.10;;;;;;5060019;28;19942;-85
2023/09/01 02:59:40;;;;;;;;;;;12.50;90.40;;;;;;5065755;28;20377;-84
2023/09/01 03:02:05;;;;;;;;;;;12.60;90.10;;;;;;5059472;28;20385;-84
2023/09/01 03:04:31;;;;;;;;;;;12.50;90.20;;;;;;5075689;28;19909;-84
2023/09/01 03:06:57;;;;;;;;;;;12.50;90.50;;;;;;5057313;28;20028;-84
2023/09/01 03:09:22;;;;;;;;;;;12.60;90.60;;;;;;5055920;28;19927;-83
2023/09/01 03:11:48;;;;;;;;;;;12.60;90.60;;;;;;5069121;28;19921;-84
2023/09/01 03:14:14;;;;;;;;;;;12.60;90.60;;;;;;5058825;28;19908;-84
2023/09/01 03:16:41;;;;;;;;;;;12.70;90.20;;;;;;5073678;28;19913;-85
2023/09/01 03:19:07;;;;;;;;;;;12.70;90.50;;;;;;5065969;28;19916;-84
2023/09/01 03:21:32;;;;;;;;;;;12.80;90.50;;;;;;5067043;28;19909;-84
2023/09/01 03:23:58;;;;;;;;;;;12.80;90.50;;;;;;5059992;28;19909;-84
2023/09/01 03:26:23;;;;;;;;;;;12.90;90.60;;;;;;5074143;28;19970;-84
2023/09/01 03:28:49;;;;;;;;;;;12.90;90.70;;;;;;5075763;28;19915;-84
2023/09/01 03:31:15;;;;;;;;;;;12.90;90.50;;;;;;5064346;28;19920;-84
2023/09/01 03:33:40;;;;;;;;;;;12.80;90.40;;;;;;5059112;28;20007;-84
2023/09/01 03:36:07;;;;;;;;;;;12.90;90.10;;;;;;5073422;28;20336;-84
2023/09/01 03:38:33;;;;;;;;;;;12.80;90.40;;;;;;5070043;28;19919;-84
2023/09/01 03:41:00;;;;;;;;;;;12.80;90.50;;;;;;5073180;28;19916;-84
2023/09/01 03:43:26;;;;;;;;;;;12.80;90.00;;;;;;5060103;28;19915;-84
2023/09/01 03:45:51;;;;;;;;;;;12.80;89.80;;;;;;5055579;28;20528;-84
2023/09/01 03:48:17;;;;;;;;;;;12.80;89.40;;;;;;5057555;28;20324;-84
2023/09/01 03:50:42;;;;;;;;;;;12.80;89.40;;;;;;5065932;28;20325;-84
2023/09/01 03:53:08;;;;;;;;;;;12.80;89.10;;;;;;5063500;28;20406;-84
2023/09/01 03:55:33;;;;;;;;;;;12.80;89.00;;;;;;5077788;28;19979;-84
2023/09/01 03:58:00;;;;;;;;;;;12.90;89.00;;;;;;5058641;28;20262;-84
2023/09/01 04:00:26;;;;;;;;;;;13.00;88.90;;;;;;5056091;28;20292;-83
2023/09/01 04:02:51;;;;;;;;;;;13.00;88.90;;;;;;5071895;28;19912;-84
2023/09/01 04:05:17;;;;;;;;;;;13.00;89.00;;;;;;5075667;28;19965;-84
2023/09/01 04:07:42;;;;;;;;;;;13.00;89.30;;;;;;5054530;28;20306;-84
2023/09/01 04:10:08;;;;;;;;;;;13.00;89.40;;;;;;5072959;28;19920;-83
2023/09/01 04:12:34;;;;;;;;;;;13.00;89.30;;;;;;5051316;28;19912;-84
2023/09/01 04:14:59;;;;;;;;;;;13.00;89.30;;;;;;5061083;28;19966;-84
2023/09/01 04:17:26;;;;;;;;;;;13.00;89.30;;;;;;5072893;28;19999;-83
2023/09/01 04:19:52;;;;;;;;;;;13.00;89.30;;;;;;5056057;28;19919;-84
2023/09/01 04:22:17;;;;;;;;;;;12.80;89.30;;;;;;5069877;28;19912;-83
2023/09/01 04:24:43;;;;;;;;;;;12.60;89.50;;;;;;5070475;28;19913;-84
2023/09/01 04:27:08;;;;;;;;;;;12.60;89.90;;;;;;5048184;28;19912;-84
2023/09/01 04:29:35;;;;;;;;;;;12.60;90.40;;;;;;5063086;28;19916;-85
2023/09/01 04:32:01;;;;;;;;;;;12.60;90.60;;;;;;5063550;28;19917;-84
2023/09/01 04:34:26;;;;;;;;;;;12.60;90.50;;;;;;5075916;28;20419;-84
2023/09/01 04:36:52;;;;;;;;;;;12.60;90.50;;;;;;5055941;28;19926;-84
2023/09/01 04:39:17;;;;;;;;;;;12.60;90.70;;;;;;5074104;28;20415;-85
2023/09/01 04:41:43;;;;;;;;;;;12.70;90.90;;;;;;5055562;28;20290;-84
2023/09/01 04:44:08;;;;;;;;;;;12.60;91.20;;;;;;5055921;28;19920;-84
2023/09/01 04:46:34;;;;;;;;;;;12.80;91.20;;;;;;5055312;28;20396;-84
2023/09/01 04:48:59;;;;;;;;;;;12.90;90.90;;;;;;5055966;28;19913;-85
2023/09/01 04:51:25;;;;;;;;;;;13.00;90.80;;;;;;5050602;28;19919;-83
2023/09/01 04:53:50;;;;;;;;;;;13.10;90.80;;;;;;5060701;28;19931;-85
2023/09/01 04:56:16;;;;;;;;;;;13.20;90.40;;;;;;5051976;28;20043;-84
2023/09/01 04:58:41;;;;;;;;;;;13.20;90.20;;;;;;5072799;28;20286;-84
2023/09/01 05:01:07;;;;;;;;;;;13.20;90.30;;;;;;5053913;28;19963;-83
2023/09/01 05:03:32;;;;;;;;;;;13.20;90.70;;;;;;5055258;28;19920;-84
2023/09/01 05:05:59;;;;;;;;;;;13.20;90.20;;;;;;5056677;28;20386;-84
2023/09/01 05:08:25;;;;;;;;;;;13.20;90.20;;;;;;5069993;28;19948;-86
2023/09/01 05:10:51;;;;;;;;;;;13.30;90.10;;;;;;5053001;28;20023;-84
2023/09/01 05:13:16;;;;;;;;;;;13.30;90.20;;;;;;5046328;28;19923;-84
2023/09/01 05:15:41;;;;;;;;;;;13.40;90.70;;;;;;5048461;28;19912;-84
2023/09/01 05:18:07;;;;;;;;;;;13.40;90.50;;;;;;5062505;28;20554;-85
2023/09/01 05:20:32;;;;;;;;;;;13.40;90.60;;;;;;5055218;28;19908;-85
2023/09/01 05:22:58;;;;;;;;;;;13.40;90.60;;;;;;5061897;28;19946;-84
2023/09/01 05:25:23;;;;;;;;;;;13.50;90.60;;;;;;5055977;28;19912;-85
2023/09/01 05:27:49;;;;;;;;;;;13.60;90.20;;;;;;5052012;28;19939;-83
2023/09/01 05:30:14;;;;;;;;;;;13.50;90.10;;;;;;5064943;28;19913;-85
2023/09/01 05:32:40;;;;;;;;;;;13.60;90.20;;;;;;5057145;28;20433;-83
2023/09/01 05:35:06;;;;;;;;;;;13.60;90.40;;;;;;5051737;28;20109;-85
2023/09/01 05:37:31;;;;;;;;;;;13.60;90.30;;;;;;5054154;28;20421;-87
2023/09/01 05:39:57;;;;;;;;;;;13.60;90.10;;;;;;5048366;28;19912;-84
2023/09/01 05:42:22;;;;;;;;;;;13.70;89.90;;;;;;5066438;28;20230;-83
2023/09/01 05:44:48;;;;;;;;;;;13.70;90.40;;;;;;5051338;28;20715;-84
2023/09/01 05:47:13;;;;;;;;;;;13.70;90.20;;;;;;5050764;28;19916;-83
2023/09/01 05:49:39;;;;;;;;;;;13.70;89.50;;;;;;5053600;28;19962;-83
2023/09/01 05:52:04;;;;;;;;;;;13.60;89.90;;;;;;5067773;28;19920;-83
2023/09/01 05:54:31;;;;;;;;;;;13.70;89.60;;;;;;5031897;28;22823;-83
2023/09/01 05:56:57;;;;;;;;;;;13.60;89.60;;;;;;5067754;28;20003;-84
2023/09/01 05:59:22;;;;;;;;;;;13.60;89.80;;;;;;5070695;28;19908;-82
2023/09/01 06:01:48;;;;;;;;;;;13.70;89.90;;;;;;5048093;28;19916;-83
2023/09/01 06:04:13;;;;;;;;;;;13.80;89.90;;;;;;5054106;28;19934;-83
2023/09/01 06:06:40;;;;;;;;;;;13.80;89.90;;;;;;5055121;28;20345;-83
2023/09/01 06:09:05;;;;;;;;;;;13.80;90.00;;;;;;5053983;28;19963;-83
2023/09/01 06:11:31;;;;;;;;;;;13.80;90.20;;;;;;5050975;28;19951;-83
2023/09/01 06:13:57;;;;;;;;;;;13.80;90.10;;;;;;5047877;28;19913;-83
2023/09/01 06:16:23;;;;;;;;;;;13.80;90.00;;;;;;5055154;28;19920;-83
2023/09/01 06:18:49;;;;;;;;;;;13.80;90.20;;;;;;5052991;28;19912;-85
2023/09/01 06:21:17;;;;;;;;;;;13.80;90.10;;;;;;5055121;28;20612;-83
2023/09/01 06:23:46;;;;;;;;;;;14.00;90.40;;;;;;5055201;28;19912;-84
2023/09/01 06:26:17;;;;;;;;;;;14.10;90.30;;;;;;5057325;28;19912;-84
2023/09/01 06:28:43;;;;;;;;;;;14.20;90.50;;;;;;5075004;28;19915;-84
2023/09/01 06:31:09;;;;;;;;;;;14.30;90.30;;;;;;5077486;28;19988;-84
2023/09/01 06:33:38;;;;;;;;;;;14.30;90.10;;;;;;5070366;28;20020;-85
2023/09/01 06:36:04;;;;;;;;;;;14.40;90.10;;;;;;5060218;28;19912;-85
2023/09/01 06:38:29;;;;;;;;;;;14.40;90.00;;;;;;5050863;28;19947;-83
2023/09/01 06:40:55;;;;;;;;;;;14.50;90.10;;;;;;5050037;28;20424;-83
2023/09/01 06:43:20;;;;;;;;;;;14.50;90.10;;;;;;5049652;28;20329;-83
2023/09/01 06:45:46;;;;;;;;;;;14.70;90.00;;;;;;5047044;28;19913;-83
2023/09/01 06:48:11;;;;;;;;;;;14.70;89.70;;;;;;5062818;28;19940;-83
2023/09/01 06:50:38;;;;;;;;;;;14.80;89.80;;;;;;5072272;28;19912;-83
2023/09/01 06:53:06;;;;;;;;;;;14.90;89.60;;;;;;5052003;28;19999;-83
2023/09/01 06:55:31;;;;;;;;;;;15.00;89.40;;;;;;5055598;28;19966;-82
2023/09/01 06:57:57;;;;;;;;;;;15.00;89.70;;;;;;5066090;28;19909;-84
2023/09/01 07:00:22;;;;;;;;;;;15.10;89.70;;;;;;5067581;28;19916;-85
2023/09/01 07:02:48;;;;;;;;;;;15.20;89.50;;;;;;5052137;28;19966;-84
2023/09/01 07:05:16;;;;;;;;;;;15.30;89.40;;;;;;5072456;28;19919;-84
2023/09/01 07:07:41;;;;;;;;;;;15.30;89.40;;;;;;5054122;28;19908;-84
2023/09/01 07:10:07;;;;;;;;;;;15.30;89.30;;;;;;5071208;28;20289;-83
2023/09/01 07:12:32;;;;;;;;;;;15.40;89.40;;;;;;5054462;28;19923;-84
2023/09/01 07:14:58;;;;;;;;;;;15.50;89.50;;;;;;5054134;28;19916;-83
2023/09/01 07:17:23;;;;;;;;;;;15.60;89.30;;;;;;5054382;28;19917;-83
2023/09/01 07:19:49;;;;;;;;;;;15.60;89.30;;;;;;5050749;28;19916;-84
2023/09/01 07:22:14;;;;;;;;;;;15.60;89.40;;;;;;5060806;28;20019;-83
2023/09/01 07:24:40;;;;;;;;;;;15.70;89.30;;;;;;5068351;28;19909;-83
2023/09/01 07:27:06;;;;;;;;;;;15.60;89.10;;;;;;5070915;28;19909;-83
2023/09/01 07:29:32;;;;;;;;;;;15.80;89.10;;;;;;5063795;28;20112;-84
2023/09/01 07:31:59;;;;;;;;;;;15.80;89.10;;;;;;5053538;28;19956;-84
2023/09/01 07:34:25;;;;;;;;;;;15.90;88.80;;;;;;5053166;28;20410;-84
2023/09/01 07:36:51;;;;;;;;;;;16.00;89.00;;;;;;5049557;28;19991;-83
2023/09/01 07:39:16;;;;;;;;;;;16.00;89.00;;;;;;5070455;28;19995;-84
2023/09/01 07:41:41;;;;;;;;;;;16.10;89.00;;;;;;5075030;28;19978;-84
2023/09/01 07:44:07;;;;;;;;;;;16.10;88.90;;;;;;5044900;28;19952;-84
2023/09/01 07:46:33;;;;;;;;;;;16.10;89.00;;;;;;5078015;28;19935;-84
2023/09/01 07:49:02;;;;;;;;;;;16.20;89.00;;;;;;5062272;28;19980;-85
2023/09/01 07:51:28;;;;;;;;;;;16.20;88.90;;;;;;5062478;28;20389;-86
2023/09/01 07:53:54;;;;;;;;;;;16.30;89.00;;;;;;5057690;28;19908;-85
2023/09/01 07:56:20;;;;;;;;;;;16.40;88.90;;;;;;5065270;28;19916;-87
2023/09/01 07:58:46;;;;;;;;;;;16.50;89.10;;;;;;5057261;28;19912;-87
2023/09/01 08:01:11;;;;;;;;;;;16.60;88.80;;;;;;5053344;28;19960;-86
2023/09/01 08:03:37;;;;;;;;;;;16.60;88.50;;;;;;5060560;28;20393;-87
2023/09/01 08:06:04;;;;;;;;;;;16.70;88.60;;;;;;5055354;28;19909;-86
2023/09/01 08:08:29;;;;;;;;;;;16.80;88.40;;;;;;5059410;28;19912;-86
2023/09/01 08:10:55;;;;;;;;;;;16.90;88.40;;;;;;5058567;28;20648;-86
2023/09/01 08:13:22;;;;;;;;;;;16.90;88.40;;;;;;5058991;28;19916;-86
2023/09/01 08:15:47;;;;;;;;;;;17.00;88.30;;;;;;5055514;28;19916;-86
2023/09/01 08:18:13;;;;;;;;;;;17.00;88.60;;;;;;5039846;28;19913;-86
2023/09/01 08:20:39;;;;;;;;;;;17.00;88.30;;;;;;5039062;28;19908;-86
2023/09/01 08:23:05;;;;;;;;;;;17.00;88.30;;;;;;5046919;28;19912;-86
2023/09/01 08:25:32;;;;;;;;;;;17.00;88.10;;;;;;5059176;28;20385;-86
2023/09/01 08:27:58;;;;;;;;;;;17.10;88.40;;;;;;5055066;28;19933;-84
2023/09/01 08:30:24;;;;;;;;;;;17.20;88.20;;;;;;5081974;28;19951;-86
2023/09/01 08:32:49;;;;;;;;;;;17.30;88.50;;;;;;5056710;28;19947;-87
2023/09/01 08:35:15;;;;;;;;;;;17.40;88.40;;;;;;5061271;28;19962;-86
2023/09/01 08:37:40;;;;;;;;;;;17.50;88.30;;;;;;5060312;28;19916;-86
2023/09/01 08:40:07;;;;;;;;;;;17.50;87.90;;;;;;5064760;28;19948;-86
2023/09/01 08:42:32;;;;;;;;;;;17.80;87.20;;;;;;5057868;28;19919;-86
2023/09/01 08:44:59;;;;;;;;;;;17.90;86.70;;;;;;5056403;28;20301;-85
2023/09/01 08:47:25;;;;;;;;;;;17.80;87.00;;;;;;5058378;28;19919;-86
2023/09/01 08:49:51;;;;;;;;;;;18.00;86.70;;;;;;5052777;28;19970;-85
2023/09/01 08:52:19;;;;;;;;;;;18.10;85.50;;;;;;5055940;28;20382;-89
2023/09/01 08:54:45;;;;;;;;;;;17.90;85.20;;;;;;5043118;28;20474;-84
2023/09/01 08:57:11;;;;;;;;;;;17.90;85.90;;;;;;5036160;28;20002;-84
2023/09/01 08:59:37;;;;;;;;;;;17.80;86.30;;;;;;5051922;28;20070;-85
2023/09/01 09:02:05;;;;;;;;;;;17.80;86.50;;;;;;5074741;28;19915;-84
2023/09/01 09:04:31;;;;;;;;;;;18.00;85.60;;;;;;5085132;28;19951;-84
2023/09/01 09:07:10;;;;;;;;;;;17.80;85.70;;;;;;5062277;28;20376;-85
2023/09/01 09:09:48;;;;;;;;;;;17.60;86.40;;;;;;5078641;28;19908;-85
2023/09/01 09:12:15;;;;;;;;;;;17.60;86.70;;;;;;5063184;28;20397;-85
2023/09/01 09:14:50;;;;;;;;;;;17.60;87.10;;;;;;5087278;28;19919;-85
2023/09/01 09:17:15;;;;;;;;;;;17.60;87.40;;;;;;5062011;28;19912;-85
2023/09/01 09:19:51;;;;;;;;;;;17.60;87.50;;;;;;5060384;28;19908;-85
2023/09/01 09:22:17;;;;;;;;;;;17.80;87.30;;;;;;5079262;28;19909;-85
2023/09/01 09:24:42;;;;;;;;;;;17.80;87.30;;;;;;5061218;28;19984;-85
2023/09/01 09:27:13;;;;;;;;;;;17.80;87.30;;;;;;5059347;28;19931;-85
2023/09/01 09:29:42;;;;;;;;;;;17.90;87.20;;;;;;5093407;28;20373;-85
2023/09/01 09:32:15;;;;;;;;;;;17.90;87.10;;;;;;5079538;28;19912;-85
2023/09/01 09:34:40;;;;;;;;;;;17.80;87.10;;;;;;5079399;28;20321;-85
2023/09/01 09:37:13;;;;;;;;;;;17.70;87.60;;;;;;5078493;28;19961;-85
2023/09/01 09:39:41;;;;;;;;;;;17.60;87.80;;;;;;5096638;28;19958;-85
2023/09/01 09:42:06;;;;;;;;;;;17.50;88.20;;;;;;5078547;28;19916;-85
2023/09/01 09:44:33;;;;;;;;;;;17.60;88.10;;;;;;5096799;28;19909;-85
2023/09/01 09:46:59;;;;;;;;;;;17.60;88.30;;;;;;5077696;28;19994;-85
2023/09/01 09:49:25;;;;;;;;;;;17.40;88.60;;;;;;5077759;28;19966;-85
2023/09/01 09:51:51;;;;;;;;;;;17.40;88.80;;;;;;5077689;28;19912;-85
2023/09/01 09:54:23;;;;;;;;;;;17.30;89.00;;;;;;5077484;28;19916;-85
2023/09/01 09:56:50;;;;;;;;;;;17.30;89.20;;;;;;5076825;28;19908;-85
2023/09/01 09:59:18;;;;;;;;;;;17.20;89.50;;;;;;5094620;28;20344;-85
2023/09/01 10:01:44;;;;;;;;;;;17.10;89.70;;;;;;5094592;28;19912;-85
2023/09/01 10:04:10;;;;;;;;;;;17.10;90.20;;;;;;5077709;28;19908;-85
2023/09/01 10:06:35;;;;;;;;;;;17.10;89.90;;;;;;5095398;28;19927;-85
2023/09/01 10:09:01;;;;;;;;;;;17.10;90.10;;;;;;5097675;28;20392;-85
2023/09/01 10:11:28;;;;;;;;;;;17.00;90.20;;;;;;5076556;28;19958;-84
2023/09/01 10:13:53;;;;;;;;;;;17.00;90.40;;;;;;5074283;28;19912;-85
2023/09/01 10:16:19;;;;;;;;;;;17.00;90.60;;;;;;5092325;28;19931;-84
2023/09/01 10:18:47;;;;;;;;;;;17.00;90.70;;;;;;5092361;28;20423;-84
2023/09/01 10:21:13;;;;;;;;;;;17.00;90.80;;;;;;5092645;28;19908;-84
2023/09/01 10:23:39;;;;;;;;;;;17.00;90.90;;;;;;5092097;28;19994;-84
2023/09/01 10:26:11;;;;;;;;;;;17.10;91.10;;;;;;5074589;28;20390;-84
2023/09/01 10:28:57;;;;;;;;;;;17.10;91.00;;;;;;5075630;28;19908;-85
2023/09/01 10:31:23;;;;;;;;;;;17.10;90.90;;;;;;5074218;28;19965;-84
2023/09/01 10:34:05;;;;;;;;;;;17.10;91.10;;;;;;5074041;28;19920;-84
2023/09/01 10:36:31;;;;;;;;;;;17.10;91.00;;;;;;5092711;28;19947;-85
2023/09/01 10:39:15;;;;;;;;;;;17.10;91.10;;;;;;5092990;28;19916;-85
2023/09/01 10:42:13;;;;;;;;;;;17.10;91.00;;;;;;5076251;28;20003;-84
2023/09/01 10:44:44;;;;;;;;;;;17.10;90.70;;;;;;5048892;28;20297;-85
2023/09/01 10:47:42;;;;;;;;;;;17.10;90.80;;;;;;5075817;28;20286;-85
2023/09/01 10:50:12;;;;;;;;;;;17.00;91.10;;;;;;5048861;28;19908;-85
2023/09/01 10:52:37;;;;;;;;;;;17.10;91.30;;;;;;5074682;28;20293;-85
2023/09/01 10:55:05;;;;;;;;;;;17.00;91.20;;;;;;5074501;28;19908;-84
2023/09/01 10:57:41;;;;;;;;;;;16.90;91.60;;;;;;5092300;28;20377;-85
2023/09/01 11:00:26;;;;;;;;;;;17.00;91.50;;;;;;5092769;28;19954;-85
2023/09/01 11:02:51;;;;;;;;;;;17.10;91.40;;;;;;5074463;28;19908;-85
2023/09/01 11:05:37;;;;;;;;;;;17.10;91.60;;;;;;5074492;28;19914;-84
2023/09/01 11:08:15;;;;;;;;;;;17.00;91.60;;;;;;5074380;28;19916;-85
2023/09/01 11:10:41;;;;;;;;;;;17.10;91.50;;;;;;5074485;28;19959;-85
2023/09/01 11:13:17;;;;;;;;;;;17.10;91.70;;;;;;5077220;28;19908;-85
2023/09/01 11:15:51;;;;;;;;;;;17.30;91.70;;;;;;5096186;28;19971;-85
2023/09/01 11:18:19;;;;;;;;;;;17.30;91.20;;;;;;5096229;28;20393;-84
2023/09/01 11:20:45;;;;;;;;;;;17.40;91.30;;;;;;5096591;28;19908;-85
2023/09/01 11:23:11;;;;;;;;;;;17.60;91.10;;;;;;5095998;28;19915;-85
2023/09/01 11:25:36;;;;;;;;;;;17.60;90.80;;;;;;5078024;28;19912;-85
2023/09/01 11:28:02;;;;;;;;;;;17.60;90.90;;;;;;5077687;28;19912;-85
2023/09/01 11:30:28;;;;;;;;;;;17.70;90.90;;;;;;5095967;28;20419;-85
2023/09/01 11:32:54;;;;;;;;;;;17.70;90.60;;;;;;5077987;28;19909;-85
2023/09/01 11:35:20;;;;;;;;;;;17.70;90.50;;;;;;5077987;28;20001;-85
2023/09/01 11:37:45;;;;;;;;;;;17.70;90.70;;;;;;5097013;28;19923;-85
2023/09/01 11:40:12;;;;;;;;;;;17.90;90.70;;;;;;5099991;28;19915;-85
2023/09/01 11:42:39;;;;;;;;;;;17.80;90.50;;;;;;5082552;28;19908;-85
2023/09/01 11:45:05;;;;;;;;;;;17.90;90.40;;;;;;5081488;28;19915;-85
2023/09/01 11:47:30;;;;;;;;;;;17.90;90.50;;;;;;5077307;28;19916;-84
2023/09/01 11:49:56;;;;;;;;;;;17.90;90.50;;;;;;5078845;28;20004;-87
2023/09/01 11:52:23;;;;;;;;;;;18.00;90.60;;;;;;5055826;28;19924;-85
2023/09/01 11:54:48;;;;;;;;;;;17.90;90.60;;;;;;5059179;28;19917;-84
2023/09/01 11:57:14;;;;;;;;;;;18.00;90.70;;;;;;5076754;28;19915;-84
2023/09/01 11:59:46;;;;;;;;;;;18.00;90.60;;;;;;5080301;28;19908;-85
2023/09/01 12:02:13;;;;;;;;;;;18.10;90.60;;;;;;5061660;28;19909;-85
2023/09/01 12:04:45;;;;;;;;;;;18.10;90.40;;;;;;5062322;28;19909;-84
2023/09/01 12:07:21;;;;;;;;;;;18.00;90.40;;;;;;5061393;28;19913;-85
2023/09/01 12:09:46;;;;;;;;;;;18.00;90.60;;;;;;5060076;28;19908;-85
2023/09/01 12:12:32;;;;;;;;;;;17.90;90.30;;;;;;5057687;28;20293;-86
2023/09/01 12:15:04;;;;;;;;;;;17.90;90.50;;;;;;5026709;28;19908;-86
2023/09/01 12:17:29;;;;;;;;;;;17.90;90.70;;;;;;5055627;28;19909;-86
2023/09/01 12:19:55;;;;;;;;;;;17.90;90.80;;;;;;5041249;28;19939;-86
2023/09/01 12:22:20;;;;;;;;;;;17.80;90.70;;;;;;5051331;28;20393;-84
2023/09/01 12:24:53;;;;;;;;;;;17.80;90.70;;;;;;5062900;28;19908;-85
2023/09/01 12:27:18;;;;;;;;;;;17.80;90.70;;;;;;5066300;28;20559;-84
2023/09/01 12:29:44;;;;;;;;;;;17.80;90.80;;;;;;5075909;28;19963;-85
2023/09/01 12:32:09;;;;;;;;;;;17.80;90.90;;;;;;5076820;28;19916;-85
2023/09/01 12:34:35;;;;;;;;;;;17.80;90.90;;;;;;5069749;28;19921;-85
2023/09/01 12:37:00;;;;;;;;;;;17.90;90.90;;;;;;5075284;28;19912;-84
2023/09/01 12:39:26;;;;;;;;;;;17.90;90.90;;;;;;5059072;28;19932;-85
2023/09/01 12:41:51;;;;;;;;;;;18.00;90.90;;;;;;5066694;28;19951;-86
2023/09/01 12:44:17;;;;;;;;;;;18.00;90.80;;;;;;5071660;28;19913;-85
2023/09/01 12:46:42;;;;;;;;;;;18.00;91.00;;;;;;5052958;28;19919;-84
2023/09/01 12:49:08;;;;;;;;;;;17.90;90.90;;;;;;5079175;28;19995;-84
2023/09/01 12:51:33;;;;;;;;;;;18.00;91.00;;;;;;5054172;28;20002;-84
2023/09/01 12:53:59;;;;;;;;;;;18.10;91.00;;;;;;5053675;28;19938;-84
2023/09/01 12:56:24;;;;;;;;;;;18.20;91.00;;;;;;5069515;28;19999;-83
2023/09/01 12:58:49;;;;;;;;;;;18.30;91.00;;;;;;5069436;28;19919;-84
2023/09/01 13:01:16;;;;;;;;;;;18.30;90.70;;;;;;5052957;28;19939;-84
2023/09/01 13:03:41;;;;;;;;;;;18.40;90.70;;;;;;5068182;28;20304;-84
2023/09/01 13:06:10;;;;;;;;;;;18.50;90.60;;;;;;5071594;28;19912;-85
2023/09/01 13:08:35;;;;;;;;;;;18.50;90.20;;;;;;5072940;28;19962;-85
2023/09/01 13:11:14;;;;;;;;;;;18.60;90.30;;;;;;5064545;28;20022;-85
2023/09/01 13:13:39;;;;;;;;;;;18.70;90.50;;;;;;5080509;28;19952;-85
2023/09/01 13:16:05;;;;;;;;;;;18.90;90.40;;;;;;5091757;28;19908;-84
2023/09/01 13:18:30;;;;;;;;;;;19.00;90.20;;;;;;5077366;28;19909;-85
2023/09/01 13:20:56;;;;;;;;;;;19.00;90.10;;;;;;5069136;28;19938;-85
2023/09/01 13:23:21;;;;;;;;;;;19.20;89.40;;;;;;5085516;28;19908;-84
2023/09/01 13:25:47;;;;;;;;;;;19.20;88.80;;;;;;5071146;28;19912;-85
2023/09/01 13:28:12;;;;;;;;;;;19.10;89.30;;;;;;5070718;28;19920;-85
2023/09/01 13:30:38;;;;;;;;;;;19.20;89.30;;;;;;5072598;28;19923;-85
2023/09/01 13:33:04;;;;;;;;;;;19.20;89.20;;;;;;5076723;28;19924;-85
2023/09/01 13:35:29;;;;;;;;;;;19.20;89.30;;;;;;5070160;28;19962;-84
2023/09/01 13:37:55;;;;;;;;;;;19.20;89.50;;;;;;5076687;28;20465;-85
2023/09/01 13:40:20;;;;;;;;;;;19.10;89.50;;;;;;5076502;28;19912;-85
2023/09/01 13:42:46;;;;;;;;;;;19.20;89.60;;;;;;5071939;28;19913;-85
2023/09/01 13:45:11;;;;;;;;;;;19.30;89.80;;;;;;5072761;28;20520;-85
2023/09/01 13:47:37;;;;;;;;;;;19.40;89.10;;;;;;5061513;28;19919;-84
2023/09/01 13:50:03;;;;;;;;;;;19.30;89.10;;;;;;5077019;28;19923;-85
2023/09/01 13:52:29;;;;;;;;;;;19.30;88.80;;;;;;5063754;28;19932;-85
2023/09/01 13:54:55;;;;;;;;;;;19.20;88.80;;;;;;5076798;28;19923;-85
2023/09/01 13:57:21;;;;;;;;;;;19.10;89.30;;;;;;5074173;28;19912;-85
2023/09/01 13:59:46;;;;;;;;;;;19.40;89.60;;;;;;5070356;28;19932;-85
2023/09/01 14:02:12;;;;;;;;;;;19.50;89.00;;;;;;5077781;28;19908;-85
2023/09/01 14:04:38;;;;;;;;;;;19.60;88.50;;;;;;5077375;28;19913;-85
2023/09/01 14:07:03;;;;;;;;;;;19.70;88.10;;;;;;5072655;28;19913;-86
2023/09/01 14:09:29;;;;;;;;;;;19.80;88.10;;;;;;5078404;28;20007;-85
2023/09/01 14:11:55;;;;;;;;;;;19.80;88.00;;;;;;5067298;28;20452;-85
2023/09/01 14:14:21;;;;;;;;;;;19.90;88.10;;;;;;5073936;28;19912;-85